createdAt,value
2023-01-21T00:02:22.950Z,2.90
2023-01-21T00:04:49.815Z,2.80
2023-01-21T00:07:16.817Z,2.80
2023-01-21T00:09:43.861Z,2.80
2023-01-21T00:12:10.823Z,2.80
2023-01-21T00:14:37.825Z,2.80
2023-01-21T00:17:04.829Z,2.80
2023-01-21T00:19:32.160Z,2.80
2023-01-21T00:21:59.135Z,2.80
2023-01-21T00:24:26.101Z,2.70
2023-01-21T00:26:52.978Z,2.70
2023-01-21T00:29:20.365Z,2.70
2023-01-21T00:31:47.519Z,2.70
2023-01-21T00:34:14.627Z,2.70
2023-01-21T00:36:41.453Z,2.70
2023-01-21T00:39:08.662Z,2.70
2023-01-21T00:41:37.318Z,2.70
2023-01-21T00:44:04.791Z,2.60
2023-01-21T00:46:32.282Z,2.60
2023-01-21T00:49:00.316Z,2.60
2023-01-21T00:51:27.594Z,2.60
2023-01-21T00:53:54.624Z,2.60
2023-01-21T00:56:21.691Z,2.50
2023-01-21T00:58:48.759Z,2.50
2023-01-21T01:01:17.402Z,2.50
2023-01-21T01:03:44.704Z,2.50
2023-01-21T01:06:14.530Z,2.40
2023-01-21T01:08:42.162Z,2.40
2023-01-21T01:11:09.411Z,2.40
2023-01-21T01:13:36.852Z,2.40
2023-01-21T01:16:04.162Z,2.40
2023-01-21T01:18:33.655Z,2.30
2023-01-21T01:21:00.807Z,2.30
2023-01-21T01:23:27.938Z,2.30
2023-01-21T01:26:02.663Z,2.30
2023-01-21T01:28:30.044Z,2.30
2023-01-21T01:30:57.476Z,2.30
2023-01-21T01:33:24.704Z,2.30
2023-01-21T01:35:51.608Z,2.30
2023-01-21T01:38:21.438Z,2.20
2023-01-21T01:40:49.075Z,2.20
2023-01-21T01:43:16.967Z,2.20
2023-01-21T01:45:44.040Z,2.20
2023-01-21T01:48:14.317Z,2.20
2023-01-21T01:50:41.797Z,2.20
2023-01-21T01:53:10.800Z,2.20
2023-01-21T01:55:38.639Z,2.20
2023-01-21T01:58:08.193Z,2.20
2023-01-21T02:00:35.258Z,2.20
2023-01-21T02:03:20.813Z,2.20
2023-01-21T02:05:48.059Z,2.20
2023-01-21T02:08:15.612Z,2.10
2023-01-21T02:10:42.539Z,2.10
2023-01-21T02:13:09.690Z,2.10
2023-01-21T02:16:11.809Z,2.10
2023-01-21T02:18:41.308Z,2.10
2023-01-21T02:21:23.726Z,2.00
2023-01-21T02:24:09.918Z,2.00
2023-01-21T02:26:36.768Z,2.00
2023-01-21T02:29:22.100Z,2.00
2023-01-21T02:31:54.916Z,1.90
2023-01-21T02:34:21.840Z,1.90
2023-01-21T02:36:56.456Z,1.90
2023-01-21T02:39:26.413Z,1.90
2023-01-21T02:42:00.687Z,1.90
2023-01-21T02:44:36.959Z,1.90
2023-01-21T02:47:26.426Z,1.80
2023-01-21T02:49:57.144Z,1.80
2023-01-21T02:52:24.777Z,1.80
2023-01-21T02:54:53.294Z,1.80
2023-01-21T02:57:24.080Z,1.80
2023-01-21T02:59:52.126Z,1.80
2023-01-21T03:02:26.940Z,1.70
2023-01-21T03:05:10.169Z,1.80
2023-01-21T03:07:41.591Z,1.70
2023-01-21T03:10:19.136Z,1.70
2023-01-21T03:12:52.385Z,1.70
2023-01-21T03:15:45.417Z,1.70
2023-01-21T03:18:26.706Z,1.70
2023-01-21T03:20:59.025Z,1.70
2023-01-21T03:23:28.707Z,1.60
2023-01-21T03:25:58.824Z,1.70
2023-01-21T03:28:26.919Z,1.60
2023-01-21T03:30:56.843Z,1.60
2023-01-21T03:33:24.532Z,1.60
2023-01-21T03:35:53.725Z,1.60
2023-01-21T03:38:31.534Z,1.60
2023-01-21T03:41:05.259Z,1.60
2023-01-21T03:43:32.183Z,1.60
2023-01-21T03:46:05.375Z,1.60
2023-01-21T03:48:44.684Z,1.50
2023-01-21T03:51:13.535Z,1.50
2023-01-21T03:53:43.308Z,1.50
2023-01-21T03:56:10.220Z,1.50
2023-01-21T03:58:37.074Z,1.50
2023-01-21T04:01:03.973Z,1.50
2023-01-21T04:03:30.882Z,1.40
2023-01-21T04:05:57.716Z,1.50
2023-01-21T04:08:24.591Z,1.50
2023-01-21T04:10:51.463Z,1.40
2023-01-21T04:13:18.308Z,1.40
2023-01-21T04:15:45.185Z,1.40
2023-01-21T04:18:12.140Z,1.40
2023-01-21T04:20:38.999Z,1.40
2023-01-21T04:23:05.886Z,1.40
2023-01-21T04:25:32.821Z,1.40
2023-01-21T04:27:59.765Z,1.40
2023-01-21T04:30:26.692Z,1.40
2023-01-21T04:32:53.551Z,1.40
2023-01-21T04:35:20.406Z,1.40
2023-01-21T04:37:47.332Z,1.40
2023-01-21T04:40:14.429Z,1.40
2023-01-21T04:42:44.497Z,1.40
2023-01-21T04:45:11.482Z,1.40
2023-01-21T04:47:42.524Z,1.40
2023-01-21T04:50:10.265Z,1.30
2023-01-21T04:52:37.190Z,1.30
2023-01-21T04:55:04.410Z,1.30
2023-01-21T04:57:31.236Z,1.30
2023-01-21T04:59:58.116Z,1.30
2023-01-21T05:02:25.051Z,1.30
2023-01-21T05:04:51.993Z,1.20
2023-01-21T05:07:20.812Z,1.20
2023-01-21T05:09:48.495Z,1.20
2023-01-21T05:12:15.497Z,1.20
2023-01-21T05:14:42.465Z,1.20
2023-01-21T05:17:09.340Z,1.20
2023-01-21T05:19:36.189Z,1.20
2023-01-21T05:22:03.070Z,1.10
2023-01-21T05:24:29.889Z,1.10
2023-01-21T05:26:56.755Z,1.10
2023-01-21T05:29:23.651Z,1.10
2023-01-21T05:31:50.521Z,1.10
2023-01-21T05:34:17.381Z,1.10
2023-01-21T05:36:44.266Z,1.10
2023-01-21T05:39:11.224Z,1.10
2023-01-21T05:41:38.087Z,1.10
2023-01-21T05:44:05.049Z,1.10
2023-01-21T05:46:31.894Z,1.10
2023-01-21T05:48:58.793Z,1.10
2023-01-21T05:51:25.740Z,1.10
2023-01-21T05:53:52.901Z,1.10
2023-01-21T05:56:19.732Z,1.10
2023-01-21T05:58:46.612Z,1.10
2023-01-21T06:01:13.507Z,1.10
2023-01-21T06:03:40.389Z,1.10
2023-01-21T06:06:07.599Z,1.10
2023-01-21T06:08:34.632Z,1.10
2023-01-21T06:11:01.497Z,1.10
2023-01-21T06:13:28.384Z,1.00
2023-01-21T06:15:58.859Z,1.00
2023-01-21T06:18:25.796Z,1.00
2023-01-21T06:20:52.731Z,1.00
2023-01-21T06:23:19.597Z,1.00
2023-01-21T06:25:46.503Z,1.00
2023-01-21T06:28:13.578Z,1.00
2023-01-21T06:30:40.431Z,1.00
2023-01-21T06:33:07.561Z,0.90
2023-01-21T06:35:35.944Z,0.90
2023-01-21T06:38:03.345Z,0.90
2023-01-21T06:40:30.196Z,0.90
2023-01-21T06:42:57.131Z,0.90
2023-01-21T06:45:24.045Z,0.90
2023-01-21T06:47:50.938Z,0.90
2023-01-21T06:50:18.595Z,0.90
2023-01-21T06:52:46.537Z,0.90
2023-01-21T06:55:13.589Z,0.90
2023-01-21T06:57:40.531Z,0.90
2023-01-21T07:00:08.642Z,0.90
2023-01-21T07:02:35.620Z,0.90
2023-01-21T07:05:03.202Z,0.90
2023-01-21T07:07:30.121Z,0.90
2023-01-21T07:09:57.001Z,0.90
2023-01-21T07:12:23.883Z,0.80
2023-01-21T07:14:50.783Z,0.90
2023-01-21T07:17:17.871Z,0.80
2023-01-21T07:19:44.754Z,0.80
2023-01-21T07:22:11.634Z,0.80
2023-01-21T07:24:38.537Z,0.80
2023-01-21T07:27:06.313Z,0.80
2023-01-21T07:29:33.348Z,0.80
2023-01-21T07:32:00.330Z,0.80
2023-01-21T07:34:27.297Z,0.80
2023-01-21T07:36:54.165Z,0.80
2023-01-21T07:39:21.052Z,0.70
2023-01-21T07:41:48.463Z,0.80
2023-01-21T07:44:15.471Z,0.60
2023-01-21T07:46:42.412Z,0.70
2023-01-21T07:49:09.811Z,0.70
2023-01-21T07:51:36.760Z,0.70
2023-01-21T07:54:03.683Z,0.70
2023-01-21T07:56:30.478Z,0.70
2023-01-21T07:58:57.381Z,0.70
2023-01-21T08:01:28.437Z,0.70
2023-01-21T08:03:55.381Z,0.70
2023-01-21T08:06:22.218Z,0.70
2023-01-21T08:08:49.132Z,0.70
2023-01-21T08:11:16.327Z,0.70
2023-01-21T08:13:43.267Z,0.70
2023-01-21T08:16:11.803Z,0.70
2023-01-21T08:18:38.709Z,0.70
2023-01-21T08:21:05.662Z,0.70
2023-01-21T08:23:32.528Z,0.70
2023-01-21T08:26:02.239Z,0.70
2023-01-21T08:28:29.063Z,0.70
2023-01-21T08:31:02.560Z,0.70
2023-01-21T08:33:29.591Z,0.70
2023-01-21T08:35:59.628Z,0.70
2023-01-21T08:38:26.524Z,0.70
2023-01-21T08:40:53.351Z,0.70
2023-01-21T08:43:20.202Z,0.70
2023-01-21T08:45:47.152Z,0.70
2023-01-21T08:48:14.066Z,0.70
2023-01-21T08:50:40.992Z,0.70
2023-01-21T08:53:09.857Z,0.80
2023-01-21T08:55:36.695Z,0.70
2023-01-21T08:58:03.606Z,0.80
2023-01-21T09:00:30.605Z,0.80
2023-01-21T09:02:58.736Z,0.80
2023-01-21T09:05:25.698Z,0.80
2023-01-21T09:07:52.557Z,0.80
2023-01-21T09:10:37.859Z,0.80
2023-01-21T09:13:05.671Z,0.90
2023-01-21T09:15:36.756Z,0.90
2023-01-21T09:18:03.724Z,0.90
2023-01-21T09:20:30.729Z,0.90
2023-01-21T09:22:58.011Z,0.90
2023-01-21T09:25:24.861Z,0.90
2023-01-21T09:27:51.868Z,0.90
2023-01-21T09:30:19.095Z,0.90
2023-01-21T09:32:45.973Z,1.00
2023-01-21T09:35:12.804Z,1.00
2023-01-21T09:37:39.725Z,1.00
2023-01-21T09:40:06.831Z,1.00
2023-01-21T09:42:34.410Z,1.00
2023-01-21T09:45:02.124Z,1.00
2023-01-21T09:47:33.811Z,1.00
2023-01-21T09:50:04.081Z,1.10
2023-01-21T09:52:35.725Z,1.00
2023-01-21T09:55:03.202Z,1.10
2023-01-21T09:57:36.215Z,1.10
2023-01-21T10:00:05.859Z,1.10
2023-01-21T10:02:49.095Z,1.20
2023-01-21T10:05:25.027Z,1.20
2023-01-21T10:07:51.854Z,1.20
2023-01-21T10:10:37.550Z,1.20
2023-01-21T10:13:22.978Z,1.30
2023-01-21T10:15:54.570Z,1.30
2023-01-21T10:18:30.816Z,1.40
2023-01-21T10:21:06.600Z,1.40
2023-01-21T10:23:40.717Z,1.40
2023-01-21T10:26:10.375Z,1.40
2023-01-21T10:28:44.745Z,1.50
2023-01-21T10:31:32.735Z,1.50
2023-01-21T10:33:59.803Z,1.50
2023-01-21T10:36:35.323Z,1.60
2023-01-21T10:39:15.192Z,1.60
2023-01-21T10:42:01.035Z,1.70
2023-01-21T10:44:27.860Z,1.70
2023-01-21T10:46:54.713Z,1.80
2023-01-21T10:49:27.482Z,1.80
2023-01-21T10:52:03.579Z,1.80
2023-01-21T10:54:47.764Z,1.90
2023-01-21T10:57:27.005Z,2.00
2023-01-21T10:59:54.076Z,2.00
2023-01-21T11:02:24.878Z,2.10
2023-01-21T11:04:52.274Z,2.20
2023-01-21T11:07:21.006Z,2.20
2023-01-21T11:09:48.206Z,2.30
2023-01-21T11:12:19.711Z,2.30
2023-01-21T11:14:48.736Z,2.40
2023-01-21T11:17:29.491Z,2.40
2023-01-21T11:20:00.606Z,2.50
2023-01-21T11:22:29.905Z,2.50
2023-01-21T11:24:56.765Z,2.60
2023-01-21T11:27:32.865Z,2.60
2023-01-21T11:29:59.943Z,2.60
2023-01-21T11:32:30.483Z,2.70
2023-01-21T11:35:10.616Z,2.70
2023-01-21T11:37:37.893Z,2.80
2023-01-21T11:40:11.074Z,2.80
2023-01-21T11:42:50.770Z,2.80
2023-01-21T11:45:28.249Z,2.90
2023-01-21T11:47:55.659Z,2.90
2023-01-21T11:50:36.400Z,3.00
2023-01-21T11:53:13.417Z,3.00
2023-01-21T11:55:40.236Z,3.10
2023-01-21T11:58:15.931Z,3.10
2023-01-21T12:00:44.980Z,3.20
2023-01-21T12:03:14.101Z,3.30
2023-01-21T12:05:43.179Z,3.30
2023-01-21T12:08:26.916Z,3.40
2023-01-21T12:10:55.917Z,3.40
2023-01-21T12:13:27.619Z,3.50
2023-01-21T12:15:57.570Z,3.60
2023-01-21T12:18:27.190Z,3.60
2023-01-21T12:21:16.106Z,3.70
2023-01-21T12:24:01.846Z,3.70
2023-01-21T12:26:34.643Z,3.70
2023-01-21T12:29:01.561Z,3.80
2023-01-21T12:31:32.977Z,3.80
2023-01-21T12:34:04.425Z,3.80
2023-01-21T12:36:38.934Z,3.80
2023-01-21T12:39:10.462Z,3.80
2023-01-21T12:41:38.961Z,3.80
2023-01-21T12:44:22.413Z,3.80
2023-01-21T12:46:50.916Z,3.80
2023-01-21T12:49:20.856Z,3.80
2023-01-21T12:52:08.133Z,3.80
2023-01-21T12:54:34.990Z,3.80
2023-01-21T12:57:20.185Z,3.80
2023-01-21T12:59:58.524Z,3.80
2023-01-21T13:04:40.292Z,3.80
2023-01-21T13:07:45.366Z,3.80
2023-01-21T13:10:15.717Z,3.80
2023-01-21T13:12:47.360Z,3.80
2023-01-21T13:15:22.278Z,3.80
2023-01-21T13:17:58.214Z,3.80
2023-01-21T13:20:26.727Z,3.80
2023-01-21T13:23:05.798Z,3.80
2023-01-21T13:25:43.593Z,3.80
2023-01-21T13:28:27.940Z,3.80
2023-01-21T13:31:19.322Z,3.80
2023-01-21T13:34:08.365Z,3.80
2023-01-21T13:37:11.387Z,3.80
2023-01-21T13:39:38.505Z,3.80
2023-01-21T13:42:32.657Z,3.80
2023-01-21T13:45:14.270Z,3.80
2023-01-21T13:48:02.299Z,3.80
2023-01-21T13:50:42.757Z,3.80
2023-01-21T13:53:41.917Z,3.80
2023-01-21T13:56:35.726Z,3.80
2023-01-21T13:59:23.000Z,3.80
2023-01-21T14:01:52.706Z,3.80
2023-01-21T14:04:19.750Z,3.80
2023-01-21T14:06:55.909Z,3.80
2023-01-21T14:09:47.004Z,3.80
2023-01-21T14:12:23.055Z,3.80
2023-01-21T14:15:08.937Z,3.70
2023-01-21T14:18:11.419Z,3.80
2023-01-21T14:20:50.589Z,3.80
2023-01-21T14:23:40.783Z,3.70
2023-01-21T14:26:33.557Z,3.70
2023-01-21T14:29:26.622Z,3.70
2023-01-21T14:31:57.018Z,3.70
2023-01-21T14:34:42.098Z,3.70
2023-01-21T14:37:18.355Z,3.70
2023-01-21T14:39:57.793Z,3.70
2023-01-21T14:42:54.854Z,3.70
2023-01-21T14:45:25.765Z,3.70
2023-01-21T14:47:54.418Z,3.60
2023-01-21T14:50:43.275Z,3.60
2023-01-21T14:53:22.903Z,3.60
2023-01-21T14:56:08.478Z,3.60
2023-01-21T14:58:36.768Z,3.60
2023-01-21T15:01:08.997Z,3.60
2023-01-21T15:03:49.247Z,3.60
2023-01-21T15:06:21.669Z,3.60
2023-01-21T15:08:56.468Z,3.60
2023-01-21T15:11:40.332Z,3.60
2023-01-21T15:14:39.435Z,3.60
2023-01-21T15:17:45.968Z,3.60
2023-01-21T15:20:39.639Z,3.60
2023-01-21T15:23:31.516Z,3.50
2023-01-21T15:26:08.264Z,3.60
2023-01-21T15:28:44.841Z,3.50
2023-01-21T15:31:42.581Z,3.50
2023-01-21T15:34:18.480Z,3.50
2023-01-21T15:36:50.426Z,3.50
2023-01-21T15:39:32.897Z,3.50
2023-01-21T15:42:08.993Z,3.50
2023-01-21T15:44:49.705Z,3.50
2023-01-21T15:47:57.768Z,3.50
2023-01-21T15:50:37.858Z,3.50
2023-01-21T15:53:41.636Z,3.50
2023-01-21T15:56:20.725Z,3.40
2023-01-21T15:58:59.926Z,3.40
2023-01-21T16:01:37.464Z,3.40
2023-01-21T16:04:29.672Z,3.40
2023-01-21T16:07:27.649Z,3.40
2023-01-21T16:10:24.116Z,3.30
2023-01-21T16:13:12.822Z,3.30
2023-01-21T16:15:43.176Z,3.30
2023-01-21T16:18:31.525Z,3.30
2023-01-21T16:21:03.763Z,3.30
2023-01-21T16:23:35.472Z,3.30
2023-01-21T16:26:02.878Z,3.30
2023-01-21T16:28:59.364Z,3.20
2023-01-21T16:31:26.519Z,3.30
2023-01-21T16:33:53.804Z,3.20
2023-01-21T16:36:20.993Z,3.20
2023-01-21T16:38:48.436Z,3.20
2023-01-21T16:41:15.487Z,3.10
2023-01-21T16:43:52.447Z,3.10
2023-01-21T16:46:48.591Z,3.10
2023-01-21T16:49:17.851Z,3.10
2023-01-21T16:51:51.979Z,3.00
2023-01-21T16:54:27.161Z,3.00
2023-01-21T16:57:23.421Z,3.00
2023-01-21T16:59:52.347Z,3.00
2023-01-21T17:02:31.650Z,3.00
2023-01-21T17:05:02.143Z,2.90
2023-01-21T17:07:43.888Z,2.90
2023-01-21T17:10:20.190Z,2.90
2023-01-21T17:13:11.864Z,2.80
2023-01-21T17:15:41.949Z,2.80
2023-01-21T17:18:23.112Z,2.80
2023-01-21T17:21:04.217Z,2.70
2023-01-21T17:23:37.653Z,2.70
2023-01-21T17:26:09.041Z,2.70
2023-01-21T17:28:44.829Z,2.70
2023-01-21T17:31:14.937Z,2.70
2023-01-21T17:33:44.088Z,2.60
2023-01-21T17:36:13.777Z,2.60
2023-01-21T17:38:44.972Z,2.60
2023-01-21T17:41:26.173Z,2.60
2023-01-21T17:43:55.807Z,2.60
2023-01-21T17:46:24.781Z,2.50
2023-01-21T17:49:14.802Z,2.50
2023-01-21T17:51:43.527Z,2.50
2023-01-21T17:54:30.013Z,2.50
2023-01-21T17:56:59.171Z,2.50
2023-01-21T17:59:35.248Z,2.50
2023-01-21T18:02:03.256Z,2.50
2023-01-21T18:04:30.472Z,2.40
2023-01-21T18:06:58.223Z,2.40
2023-01-21T18:09:25.820Z,2.40
2023-01-21T18:11:55.499Z,2.40
2023-01-21T18:14:25.274Z,2.40
2023-01-21T18:16:54.186Z,2.40
2023-01-21T18:19:28.755Z,2.30
2023-01-21T18:21:56.393Z,2.30
2023-01-21T18:24:23.840Z,2.30
2023-01-21T18:26:51.138Z,2.30
2023-01-21T18:29:19.462Z,2.30
2023-01-21T18:31:48.737Z,2.30
2023-01-21T18:34:15.721Z,2.20
2023-01-21T18:36:42.964Z,2.20
2023-01-21T18:39:20.368Z,2.20
2023-01-21T18:41:47.806Z,2.20
2023-01-21T18:44:16.253Z,2.20
2023-01-21T18:46:43.548Z,2.20
2023-01-21T18:49:19.784Z,2.10
2023-01-21T18:51:47.889Z,2.10
2023-01-21T18:54:16.548Z,2.10
2023-01-21T18:56:44.226Z,2.10
2023-01-21T18:59:19.284Z,2.10
2023-01-21T19:01:46.495Z,2.10
2023-01-21T19:04:16.217Z,2.10
2023-01-21T19:06:43.568Z,2.00
2023-01-21T19:09:21.982Z,2.00
2023-01-21T19:11:49.196Z,2.00
2023-01-21T19:14:16.699Z,2.00
2023-01-21T19:16:44.651Z,2.00
2023-01-21T19:19:13.181Z,2.00
2023-01-21T19:21:40.271Z,2.00
2023-01-21T19:24:08.533Z,2.00
2023-01-21T19:26:38.069Z,2.00
2023-01-21T19:29:07.855Z,2.00
2023-01-21T19:31:34.967Z,2.00
2023-01-21T19:34:02.039Z,2.00
2023-01-21T19:36:29.145Z,2.00
2023-01-21T19:38:58.720Z,2.00
2023-01-21T19:41:25.876Z,2.00
2023-01-21T19:43:53.060Z,1.90
2023-01-21T19:46:20.198Z,1.90
2023-01-21T19:48:50.405Z,1.90
2023-01-21T19:51:17.644Z,1.90
2023-01-21T19:53:44.721Z,1.90
2023-01-21T19:56:19.628Z,1.90
2023-01-21T19:58:46.744Z,1.90
2023-01-21T20:01:13.855Z,1.90
2023-01-21T20:03:54.545Z,1.90
2023-01-21T20:06:27.530Z,1.80
2023-01-21T20:08:54.583Z,1.80
2023-01-21T20:11:22.076Z,1.80
2023-01-21T20:13:49.118Z,1.80
2023-01-21T20:16:20.983Z,1.80
2023-01-21T20:18:49.854Z,1.70
2023-01-21T20:21:16.823Z,1.70
2023-01-21T20:23:43.851Z,1.70
2023-01-21T20:26:21.019Z,1.70
2023-01-21T20:28:51.434Z,1.60
2023-01-21T20:31:19.366Z,1.60
2023-01-21T20:33:46.728Z,1.60
2023-01-21T20:36:25.444Z,1.60
2023-01-21T20:38:54.620Z,1.60
2023-01-21T20:41:21.711Z,1.60
2023-01-21T20:43:48.726Z,1.60
2023-01-21T20:46:22.443Z,1.60
2023-01-21T20:48:51.656Z,1.50
2023-01-21T20:51:19.379Z,1.50
2023-01-21T20:53:46.600Z,1.50
2023-01-21T20:56:27.852Z,1.50
2023-01-21T20:58:55.227Z,1.50
2023-01-21T21:01:25.020Z,1.50
2023-01-21T21:03:52.689Z,1.50
2023-01-21T21:06:22.472Z,1.50
2023-01-21T21:08:50.293Z,1.50
2023-01-21T21:11:18.841Z,1.50
2023-01-21T21:13:48.429Z,1.50
2023-01-21T21:16:31.951Z,1.50
2023-01-21T21:19:00.678Z,1.50
2023-01-21T21:21:27.906Z,1.50
2023-01-21T21:23:54.982Z,1.50
2023-01-21T21:26:24.634Z,1.50
2023-01-21T21:28:57.512Z,1.50
2023-01-21T21:31:27.845Z,1.50
2023-01-21T21:33:55.089Z,1.50
2023-01-21T21:36:25.714Z,1.50
2023-01-21T21:38:55.846Z,1.50
2023-01-21T21:41:43.294Z,1.50
2023-01-21T21:44:10.676Z,1.50
2023-01-21T21:46:56.719Z,1.60
2023-01-21T21:49:24.196Z,1.60
2023-01-21T21:51:51.495Z,1.50
2023-01-21T21:54:18.821Z,1.50
2023-01-21T21:56:46.623Z,1.50
2023-01-21T21:59:14.033Z,1.50
2023-01-21T22:01:42.845Z,1.50
2023-01-21T22:04:10.477Z,1.50
2023-01-21T22:06:37.823Z,1.50
2023-01-21T22:09:04.935Z,1.50
2023-01-21T22:11:31.985Z,1.50
2023-01-21T22:13:59.107Z,1.50
2023-01-21T22:16:28.722Z,1.50
2023-01-21T22:18:58.043Z,1.40
2023-01-21T22:21:31.939Z,1.50
2023-01-21T22:23:59.565Z,1.40
2023-01-21T22:26:28.106Z,1.40
2023-01-21T22:28:54.982Z,1.40
2023-01-21T22:31:27.888Z,1.40
2023-01-21T22:33:56.023Z,1.40
2023-01-21T22:36:24.948Z,1.40
2023-01-21T22:38:52.724Z,1.40
2023-01-21T22:41:22.017Z,1.30
2023-01-21T22:43:50.236Z,1.40
2023-01-21T22:46:20.473Z,1.30
2023-01-21T22:48:47.566Z,1.30
2023-01-21T22:51:16.410Z,1.30
2023-01-21T22:53:46.427Z,1.30
2023-01-21T22:56:16.306Z,1.20
2023-01-21T22:58:43.839Z,1.20
2023-01-21T23:01:26.197Z,1.20
2023-01-21T23:03:54.230Z,1.20
2023-01-21T23:06:21.784Z,1.20
2023-01-21T23:08:49.154Z,1.20
2023-01-21T23:11:18.182Z,1.20
2023-01-21T23:13:46.134Z,1.20
2023-01-21T23:16:19.253Z,1.20
2023-01-21T23:18:46.924Z,1.20
2023-01-21T23:21:17.409Z,1.20
2023-01-21T23:23:44.554Z,1.20
2023-01-21T23:26:13.288Z,1.10
2023-01-21T23:28:43.864Z,1.10
2023-01-21T23:31:14.673Z,1.20
2023-01-21T23:33:42.287Z,1.20
2023-01-21T23:36:12.913Z,1.20
2023-01-21T23:38:41.148Z,1.20
2023-01-21T23:41:10.714Z,1.10
2023-01-21T23:43:37.889Z,1.10
2023-01-21T23:46:06.575Z,1.10
2023-01-21T23:48:33.658Z,1.10
2023-01-21T23:51:06.190Z,1.10
2023-01-21T23:53:34.300Z,1.10
2023-01-21T23:56:08.233Z,1.10
2023-01-21T23:58:35.353Z,1.10
